createdAt,value
2022-10-13T00:01:48.693Z,26.50
2022-10-13T00:04:16.982Z,25.63
2022-10-13T00:06:43.811Z,26.73
2022-10-13T00:09:16.041Z,25.25
2022-10-13T00:11:43.600Z,26.20
2022-10-13T00:14:11.012Z,25.80
2022-10-13T00:19:29.879Z,25.30
2022-10-13T00:21:57.032Z,28.42
2022-10-13T00:24:24.232Z,27.02
2022-10-13T00:26:53.148Z,25.58
2022-10-13T00:29:20.555Z,25.35
2022-10-13T00:31:49.578Z,27.40
2022-10-13T00:34:28.056Z,27.75
2022-10-13T00:36:55.301Z,26.27
2022-10-13T00:39:22.461Z,24.63
2022-10-13T00:41:49.537Z,25.92
2022-10-13T00:44:54.829Z,26.02
2022-10-13T00:47:23.378Z,26.27
2022-10-13T00:49:52.065Z,25.77
2022-10-13T00:52:22.257Z,25.70
2022-10-13T00:54:50.008Z,26.00
2022-10-13T00:57:19.341Z,23.63
2022-10-13T00:59:50.275Z,28.58
2022-10-13T01:02:18.390Z,24.48
2022-10-13T01:04:50.329Z,26.60
2022-10-13T01:07:19.169Z,28.02
2022-10-13T01:09:46.881Z,28.15
2022-10-13T01:12:32.208Z,27.42
2022-10-13T01:15:27.262Z,27.00
2022-10-13T01:18:09.106Z,26.40
2022-10-13T01:20:57.375Z,27.77
2022-10-13T01:24:05.695Z,27.63
2022-10-13T01:27:22.911Z,28.02
2022-10-13T01:30:09.561Z,27.20
2022-10-13T01:35:32.365Z,27.50
2022-10-13T01:38:33.474Z,28.55
2022-10-13T01:41:31.100Z,28.27
2022-10-13T01:44:27.609Z,28.95
2022-10-13T01:46:56.511Z,31.50
2022-10-13T01:52:16.717Z,31.33
2022-10-13T01:54:49.481Z,30.08
2022-10-13T01:57:37.147Z,30.50
2022-10-13T02:00:12.633Z,30.17
2022-10-13T02:03:28.161Z,30.85
2022-10-13T02:09:12.548Z,32.50
2022-10-13T02:11:47.354Z,34.55
2022-10-13T02:14:20.190Z,31.83
2022-10-13T02:16:50.350Z,33.13
2022-10-13T02:19:20.634Z,34.83
2022-10-13T02:21:48.666Z,33.10
2022-10-13T02:24:17.224Z,33.28
2022-10-13T02:26:46.571Z,31.92
2022-10-13T02:29:17.034Z,32.90
2022-10-13T02:34:24.076Z,33.33
2022-10-13T02:36:52.251Z,33.67
2022-10-13T02:39:24.387Z,33.53
2022-10-13T02:41:52.842Z,34.72
2022-10-13T02:44:25.571Z,33.45
2022-10-13T02:46:53.414Z,34.60
2022-10-13T02:49:23.164Z,33.10
2022-10-13T02:52:07.396Z,33.67
2022-10-13T02:54:35.423Z,34.67
2022-10-13T02:57:02.151Z,33.10
2022-10-13T02:59:29.232Z,32.65
2022-10-13T03:01:57.120Z,35.67
2022-10-13T03:04:25.078Z,34.25
2022-10-13T03:06:52.220Z,34.20
2022-10-13T03:09:20.947Z,37.75
2022-10-13T03:11:50.721Z,36.28
2022-10-13T03:14:18.061Z,35.08
2022-10-13T03:16:45.299Z,34.65
2022-10-13T03:19:15.960Z,39.85
2022-10-13T03:21:43.380Z,34.63
2022-10-13T03:24:11.073Z,37.38
2022-10-13T03:26:41.894Z,40.60
2022-10-13T03:29:18.343Z,37.13
2022-10-13T03:31:52.561Z,38.75
2022-10-13T03:34:21.685Z,40.45
2022-10-13T03:36:48.622Z,39.85
2022-10-13T03:39:15.526Z,38.42
2022-10-13T03:41:43.535Z,39.28
2022-10-13T03:44:13.361Z,39.90
2022-10-13T03:46:42.107Z,40.33
2022-10-13T03:49:11.439Z,38.60
2022-10-13T03:51:41.624Z,40.38
2022-10-13T03:54:15.550Z,41.40
2022-10-13T03:56:43.505Z,38.15
2022-10-13T03:59:13.512Z,37.90
2022-10-13T04:01:40.948Z,39.05
2022-10-13T04:04:13.547Z,39.35
2022-10-13T04:06:40.485Z,42.35
2022-10-13T04:09:09.942Z,41.20
2022-10-13T04:11:36.815Z,39.67
2022-10-13T04:14:04.544Z,40.30
2022-10-13T04:16:33.594Z,39.50
2022-10-13T04:19:03.430Z,40.58
2022-10-13T04:21:34.301Z,38.85
2022-10-13T04:24:02.202Z,40.22
2022-10-13T04:26:33.913Z,37.30
2022-10-13T04:29:05.126Z,37.20
2022-10-13T04:31:32.973Z,36.75
2022-10-13T04:33:59.874Z,37.95
2022-10-13T04:36:27.849Z,35.13
2022-10-13T04:38:55.928Z,38.20
2022-10-13T04:41:24.894Z,38.75
2022-10-13T04:43:53.680Z,37.10
2022-10-13T04:46:24.392Z,37.58
2022-10-13T04:48:53.575Z,36.28
2022-10-13T04:51:24.623Z,37.42
2022-10-13T04:53:59.213Z,36.85
2022-10-13T04:56:37.970Z,37.08
2022-10-13T04:59:10.446Z,38.08
2022-10-13T05:01:45.147Z,40.10
2022-10-13T05:04:14.707Z,37.30
2022-10-13T05:07:12.492Z,36.20
2022-10-13T05:09:35.637Z,38.70
2022-10-13T05:12:04.418Z,39.95
2022-10-13T05:14:42.608Z,38.70
2022-10-13T05:17:13.185Z,39.78
2022-10-13T05:22:23.860Z,38.95
2022-10-13T05:24:51.015Z,39.13
2022-10-13T05:27:18.369Z,40.38
2022-10-13T05:29:45.676Z,38.00
2022-10-13T05:32:14.614Z,38.80
2022-10-13T05:34:42.829Z,38.67
2022-10-13T05:37:09.568Z,39.85
2022-10-13T05:39:37.127Z,38.38
2022-10-13T05:42:06.057Z,39.38
2022-10-13T05:44:32.714Z,37.95
2022-10-13T05:47:07.840Z,41.38
2022-10-13T05:49:37.442Z,40.45
2022-10-13T05:52:09.157Z,39.15
2022-10-13T05:54:52.328Z,39.95
2022-10-13T05:57:31.459Z,41.63
2022-10-13T06:00:18.237Z,40.33
2022-10-13T06:03:07.556Z,43.45
2022-10-13T06:05:40.373Z,40.85
2022-10-13T06:13:21.372Z,36.72
2022-10-13T06:15:49.157Z,40.25
2022-10-13T06:18:19.404Z,35.63
2022-10-13T06:20:48.809Z,36.00
2022-10-13T06:23:18.984Z,33.40
2022-10-13T06:25:54.428Z,33.22
2022-10-13T06:28:26.267Z,34.95
2022-10-13T06:31:05.788Z,35.20
2022-10-13T06:33:35.264Z,36.53
2022-10-13T06:41:16.417Z,33.30
2022-10-13T06:43:44.255Z,34.47
2022-10-13T06:51:27.554Z,35.28
2022-10-13T06:53:56.970Z,33.67
2022-10-13T06:59:02.483Z,35.85
2022-10-13T07:22:58.341Z,23.70
2022-10-13T07:28:14.000Z,22.15
2022-10-13T07:30:41.002Z,21.20
2022-10-13T07:51:50.180Z,21.50
2022-10-13T07:54:23.704Z,22.23
2022-10-13T07:56:53.487Z,24.00
2022-10-13T07:59:21.296Z,22.10
2022-10-13T08:01:50.057Z,21.63
2022-10-13T08:04:20.878Z,20.60
2022-10-13T08:06:51.210Z,20.00
2022-10-13T08:09:19.612Z,20.07
2022-10-13T08:11:50.831Z,20.00
2022-10-13T08:14:18.521Z,20.30
2022-10-13T08:16:48.743Z,19.47
2022-10-13T08:19:27.106Z,20.30
2022-10-13T08:21:58.586Z,20.13
2022-10-13T08:24:30.277Z,18.73
2022-10-13T08:27:01.986Z,18.53
2022-10-13T08:29:32.590Z,21.53
2022-10-13T08:32:01.608Z,18.43
2022-10-13T08:34:28.836Z,18.77
2022-10-13T08:37:00.068Z,16.10
2022-10-13T08:39:27.630Z,17.17
2022-10-13T08:41:58.584Z,17.00
2022-10-13T08:47:43.410Z,17.40
2022-10-13T08:50:24.746Z,17.30
2022-10-13T08:55:55.692Z,16.07
2022-10-13T08:58:32.689Z,17.73
2022-10-13T09:01:19.835Z,19.07
2022-10-13T09:04:26.105Z,18.70
2022-10-13T09:07:21.006Z,18.87
2022-10-13T09:09:55.750Z,16.63
2022-10-13T09:12:27.349Z,15.27
2022-10-13T09:15:06.080Z,14.40
2022-10-13T09:17:36.084Z,13.73
2022-10-13T09:20:11.249Z,16.47
2022-10-13T09:22:40.319Z,14.27
2022-10-13T09:25:15.970Z,13.90
2022-10-13T09:28:17.800Z,14.33
2022-10-13T09:31:02.076Z,12.20
2022-10-13T09:33:29.221Z,14.27
2022-10-13T09:36:17.582Z,15.87
2022-10-13T09:39:07.565Z,13.30
2022-10-13T09:41:36.253Z,14.33
2022-10-13T09:44:31.260Z,13.40
2022-10-13T09:47:04.208Z,13.80
2022-10-13T09:49:43.988Z,13.07
2022-10-13T09:52:27.038Z,13.50
2022-10-13T09:54:59.863Z,14.20
2022-10-13T09:58:06.874Z,12.43
2022-10-13T10:00:40.109Z,12.53
2022-10-13T10:03:24.723Z,13.23
2022-10-13T10:05:57.446Z,11.53
2022-10-13T10:09:01.463Z,13.23
2022-10-13T10:11:39.663Z,12.10
2022-10-13T10:14:24.552Z,11.63
2022-10-13T10:17:07.160Z,11.27
2022-10-13T10:20:22.372Z,10.50
2022-10-13T10:23:26.559Z,11.60
2022-10-13T10:26:04.473Z,14.07
2022-10-13T10:29:00.798Z,10.60
2022-10-13T10:31:46.392Z,11.63
2022-10-13T10:34:41.105Z,10.60
2022-10-13T10:37:21.099Z,10.10
2022-10-13T10:39:59.380Z,10.90
2022-10-13T10:42:37.406Z,10.40
2022-10-13T10:45:18.339Z,10.60
2022-10-13T10:47:51.087Z,11.97
2022-10-13T10:50:23.013Z,10.07
2022-10-13T10:53:07.885Z,10.47
2022-10-13T10:55:55.676Z,10.13
2022-10-13T10:58:25.229Z,10.20
2022-10-13T11:01:07.124Z,9.90
2022-10-13T11:04:22.802Z,9.07
2022-10-13T11:06:55.417Z,10.20
2022-10-13T11:10:04.533Z,10.77
2022-10-13T11:12:58.035Z,8.80
2022-10-13T11:15:42.998Z,10.20
2022-10-13T11:18:48.444Z,8.07
2022-10-13T11:21:17.176Z,7.70
2022-10-13T11:23:47.133Z,9.00
2022-10-13T11:26:27.763Z,9.37
2022-10-13T11:28:58.731Z,8.20
2022-10-13T11:31:49.300Z,8.23
2022-10-13T11:34:29.769Z,6.77
2022-10-13T11:37:01.414Z,7.30
2022-10-13T11:39:35.549Z,8.17
2022-10-13T11:42:36.957Z,8.27
2022-10-13T11:45:38.236Z,8.63
2022-10-13T11:49:02.066Z,8.90
2022-10-13T11:51:53.029Z,6.70
2022-10-13T11:54:23.259Z,5.77
2022-10-13T11:57:10.776Z,7.13
2022-10-13T11:59:38.330Z,7.20
2022-10-13T12:02:22.475Z,5.57
2022-10-13T12:05:21.560Z,6.00
2022-10-13T12:07:50.783Z,6.00
2022-10-13T12:10:38.602Z,5.50
2022-10-13T12:13:08.775Z,6.33
2022-10-13T12:15:43.447Z,7.93
2022-10-13T12:20:57.424Z,6.60
2022-10-13T12:23:26.560Z,5.53
2022-10-13T12:26:03.334Z,6.10
2022-10-13T12:29:10.631Z,5.67
2022-10-13T12:31:48.699Z,6.80
2022-10-13T12:34:32.835Z,6.60
2022-10-13T12:37:03.869Z,6.33
2022-10-13T12:39:39.049Z,6.10
2022-10-13T12:42:13.849Z,5.10
2022-10-13T12:44:48.452Z,6.03
2022-10-13T12:47:48.768Z,6.90
2022-10-13T12:50:33.373Z,6.57
2022-10-13T12:53:08.009Z,5.60
2022-10-13T12:55:42.038Z,4.87
2022-10-13T12:58:34.035Z,4.90
2022-10-13T13:01:28.189Z,5.57
2022-10-13T13:04:17.593Z,5.80
2022-10-13T13:07:01.128Z,5.73
2022-10-13T13:09:34.961Z,5.20
2022-10-13T13:12:12.783Z,6.27
2022-10-13T13:17:27.704Z,5.73
2022-10-13T13:23:02.661Z,5.80
2022-10-13T13:25:31.140Z,5.03
2022-10-13T13:27:58.171Z,5.10
2022-10-13T13:33:13.247Z,4.80
2022-10-13T13:35:44.987Z,5.70
2022-10-13T13:38:13.613Z,5.60
2022-10-13T13:40:40.692Z,4.83
2022-10-13T13:43:09.291Z,5.23
2022-10-13T13:51:11.297Z,5.50
2022-10-13T14:01:51.988Z,5.63
2022-10-13T14:04:19.994Z,5.73
2022-10-13T14:06:49.027Z,5.43
2022-10-13T14:17:18.255Z,5.00
2022-10-13T14:19:52.927Z,4.93
2022-10-13T14:25:05.674Z,5.23
2022-10-13T14:27:35.470Z,5.10
2022-10-13T14:32:33.258Z,5.50
2022-10-13T14:35:00.611Z,4.90
2022-10-13T14:37:33.075Z,6.33
2022-10-13T14:40:05.091Z,4.77
2022-10-13T14:42:35.228Z,5.27
2022-10-13T14:45:07.178Z,5.97
2022-10-13T14:50:12.058Z,5.60
2022-10-13T14:52:39.688Z,6.13
2022-10-13T14:55:15.827Z,4.10
2022-10-13T15:03:15.876Z,5.90
2022-10-13T15:05:50.636Z,6.33
2022-10-13T15:08:26.928Z,9.37
2022-10-13T15:17:20.188Z,6.20
2022-10-13T15:19:50.328Z,5.70
2022-10-13T15:39:01.900Z,6.40
2022-10-13T15:44:50.946Z,7.47
2022-10-13T15:52:47.091Z,6.47
2022-10-13T15:55:17.404Z,8.10
2022-10-13T16:00:22.786Z,6.63
2022-10-13T16:02:52.263Z,7.70
2022-10-13T16:05:29.930Z,6.93
2022-10-13T16:07:58.263Z,7.17
2022-10-13T16:10:26.571Z,7.73
2022-10-13T16:12:59.811Z,6.93
2022-10-13T16:15:39.379Z,10.37
2022-10-13T16:18:12.406Z,7.60
2022-10-13T16:20:46.332Z,8.93
2022-10-13T16:23:16.905Z,10.30
2022-10-13T16:25:46.119Z,8.33
2022-10-13T16:28:24.633Z,7.50
2022-10-13T16:30:52.314Z,9.13
2022-10-13T16:33:19.996Z,10.33
2022-10-13T16:35:49.765Z,9.57
2022-10-13T16:38:19.205Z,8.57
2022-10-13T16:40:46.669Z,8.30
2022-10-13T16:43:16.177Z,9.97
2022-10-13T16:45:59.155Z,10.03
2022-10-13T16:48:26.673Z,8.83
2022-10-13T16:50:55.851Z,9.68
2022-10-13T16:53:23.493Z,9.20
2022-10-13T16:56:00.340Z,10.50
2022-10-13T16:58:30.787Z,8.57
2022-10-13T17:01:11.594Z,10.15
2022-10-13T17:03:40.487Z,9.47
2022-10-13T17:06:10.055Z,8.48
2022-10-13T17:08:41.891Z,12.05
2022-10-13T17:11:11.052Z,11.45
2022-10-13T17:13:38.222Z,10.07
2022-10-13T17:16:13.779Z,10.85
2022-10-13T17:18:45.588Z,9.98
2022-10-13T17:24:15.410Z,11.23
2022-10-13T17:26:47.887Z,11.25
2022-10-13T17:29:36.851Z,11.82
2022-10-13T17:32:17.022Z,11.95
2022-10-13T17:34:50.125Z,13.20
2022-10-13T17:37:29.665Z,15.85
2022-10-13T17:40:01.813Z,14.88
2022-10-13T17:42:40.355Z,13.48
2022-10-13T17:47:58.600Z,13.57
2022-10-13T17:53:20.338Z,15.25
2022-10-13T17:55:47.801Z,17.02
2022-10-13T17:58:17.402Z,14.98
2022-10-13T18:01:11.787Z,13.80
2022-10-13T18:06:46.049Z,17.92
2022-10-13T18:09:16.587Z,16.02
2022-10-13T18:11:54.254Z,16.83
2022-10-13T18:14:24.786Z,16.95
2022-10-13T18:22:35.563Z,19.73
2022-10-13T18:25:10.695Z,18.58
2022-10-13T18:27:39.023Z,19.90
2022-10-13T18:30:22.322Z,17.95
2022-10-13T18:32:55.244Z,17.83
2022-10-13T18:35:32.051Z,17.88
2022-10-13T18:38:07.116Z,19.73
2022-10-13T18:40:42.552Z,19.52
2022-10-13T18:43:12.897Z,18.38
2022-10-13T18:48:35.187Z,18.33
2022-10-13T18:51:22.542Z,18.38
2022-10-13T18:53:53.171Z,20.38
2022-10-13T18:56:33.943Z,19.65
2022-10-13T18:59:03.938Z,18.27
2022-10-13T19:01:41.322Z,18.40
2022-10-13T19:06:54.875Z,18.13
2022-10-13T19:12:09.600Z,20.10
2022-10-13T19:14:42.036Z,20.95
2022-10-13T19:17:09.521Z,19.92
2022-10-13T19:19:37.337Z,20.92
2022-10-13T19:22:04.274Z,23.05
2022-10-13T19:24:34.618Z,21.02
2022-10-13T19:27:10.020Z,23.85
2022-10-13T19:29:41.414Z,24.65
2022-10-13T19:32:09.101Z,24.42
2022-10-13T19:34:36.529Z,23.77
2022-10-13T19:37:08.373Z,27.00
2022-10-13T19:39:37.384Z,24.60
2022-10-13T19:42:06.983Z,23.58
2022-10-13T19:44:34.032Z,24.75
2022-10-13T19:47:05.788Z,26.35
2022-10-13T19:50:01.710Z,27.30
2022-10-13T19:58:44.590Z,26.73
2022-10-13T20:01:15.935Z,21.38
2022-10-13T20:03:44.615Z,23.02
2022-10-13T20:06:14.409Z,24.15
2022-10-13T20:08:49.519Z,24.70
2022-10-13T20:11:23.854Z,22.92
2022-10-13T20:13:55.361Z,22.80
2022-10-13T20:16:26.197Z,24.17
2022-10-13T20:18:56.656Z,22.23
2022-10-13T20:21:24.702Z,22.17
2022-10-13T20:23:55.775Z,22.02
2022-10-13T20:26:23.579Z,23.17
2022-10-13T20:28:53.037Z,22.42
2022-10-13T20:31:22.022Z,24.75
2022-10-13T20:33:54.835Z,21.98
2022-10-13T20:36:28.054Z,23.80
2022-10-13T20:38:57.734Z,22.58
2022-10-13T20:41:35.537Z,21.05
2022-10-13T20:44:03.450Z,24.83
2022-10-13T20:46:30.535Z,22.88
2022-10-13T20:49:15.294Z,22.20
2022-10-13T20:51:43.689Z,22.58
2022-10-13T20:54:13.866Z,22.55
2022-10-13T20:56:48.884Z,21.80
2022-10-13T20:59:17.097Z,21.40
2022-10-13T21:01:45.456Z,23.08
2022-10-13T21:04:15.155Z,23.35
2022-10-13T21:06:44.959Z,24.35
2022-10-13T21:09:14.307Z,21.60
2022-10-13T21:11:44.134Z,23.10
2022-10-13T21:14:11.694Z,23.17
2022-10-13T21:16:39.337Z,22.63
2022-10-13T21:19:10.110Z,24.17
2022-10-13T21:21:37.970Z,23.00
2022-10-13T21:24:07.721Z,25.50
2022-10-13T21:26:37.960Z,24.10
2022-10-13T21:29:08.300Z,24.38
2022-10-13T21:31:37.648Z,25.23
2022-10-13T21:34:04.602Z,24.83
2022-10-13T21:36:33.469Z,24.70
2022-10-13T21:39:05.772Z,24.55
2022-10-13T21:41:34.430Z,25.25
2022-10-13T21:44:01.503Z,23.10
2022-10-13T21:46:32.656Z,25.08
2022-10-13T21:49:02.059Z,26.45
2022-10-13T21:51:41.809Z,24.95
2022-10-13T21:54:15.480Z,26.75
2022-10-13T21:56:42.658Z,24.42
2022-10-13T21:59:14.739Z,26.05
2022-10-13T22:01:43.713Z,24.02
2022-10-13T22:04:13.721Z,27.70
2022-10-13T22:06:50.974Z,28.70
2022-10-13T22:09:20.813Z,26.27
2022-10-13T22:11:51.763Z,26.75
2022-10-13T22:14:25.248Z,26.00
2022-10-13T22:16:57.889Z,28.63
2022-10-13T22:19:25.321Z,26.48
2022-10-13T22:21:54.985Z,27.17
2022-10-13T22:24:22.345Z,28.30
2022-10-13T22:26:51.729Z,29.00
2022-10-13T22:29:23.288Z,28.48
2022-10-13T22:31:58.528Z,26.52
2022-10-13T22:34:28.613Z,27.20
2022-10-13T22:36:58.379Z,27.40
2022-10-13T22:39:27.976Z,27.80
2022-10-13T22:42:01.371Z,29.85
2022-10-13T22:44:28.373Z,28.73
2022-10-13T22:46:58.232Z,28.13
2022-10-13T22:49:27.307Z,28.63
2022-10-13T22:51:55.754Z,28.92
2022-10-13T22:54:23.000Z,27.33
2022-10-13T22:56:50.283Z,28.50
2022-10-13T22:59:17.411Z,29.40
2022-10-13T23:01:44.315Z,27.70
2022-10-13T23:04:11.516Z,26.83
2022-10-13T23:06:39.223Z,26.92
2022-10-13T23:09:09.513Z,27.15
2022-10-13T23:11:37.832Z,27.42
2022-10-13T23:14:08.835Z,26.70
2022-10-13T23:16:36.578Z,26.83
2022-10-13T23:19:04.354Z,30.45
2022-10-13T23:21:32.985Z,29.33
2022-10-13T23:24:03.000Z,29.40
2022-10-13T23:26:35.194Z,27.00
2022-10-13T23:29:05.796Z,29.00
2022-10-13T23:31:33.939Z,30.65
2022-10-13T23:34:08.408Z,26.80
2022-10-13T23:36:37.775Z,27.25
2022-10-13T23:39:07.555Z,30.98
2022-10-13T23:41:35.041Z,32.75
2022-10-13T23:44:01.925Z,29.73
2022-10-13T23:46:30.481Z,28.08
2022-10-13T23:48:57.417Z,30.70
2022-10-13T23:51:27.061Z,28.15
2022-10-13T23:53:56.494Z,28.70
2022-10-13T23:56:24.394Z,30.23
2022-10-13T23:58:53.949Z,29.73
